sensor_id;sensor_type;location;lat;lon;timestamp;P1;durP1;ratioP1;P2;durP2;ratioP2
22284;SDS011;11311;52.192;20.900;2023-04-28T00:00:14;36.60;;;22.58;;
22284;SDS011;11311;52.192;20.900;2023-04-28T00:02:43;33.65;;;21.55;;
22284;SDS011;11311;52.192;20.900;2023-04-28T00:05:15;37.55;;;22.17;;
22284;SDS011;11311;52.192;20.900;2023-04-28T00:07:45;29.02;;;20.45;;
22284;SDS011;11311;52.192;20.900;2023-04-28T00:10:14;33.30;;;22.25;;
22284;SDS011;11311;52.192;20.900;2023-04-28T00:12:43;41.72;;;22.85;;
22284;SDS011;11311;52.192;20.900;2023-04-28T00:15:12;36.10;;;23.50;;
22284;SDS011;11311;52.192;20.900;2023-04-28T00:17:41;29.63;;;18.17;;
22284;SDS011;11311;52.192;20.900;2023-04-28T00:20:11;41.17;;;23.30;;
22284;SDS011;11311;52.192;20.900;2023-04-28T00:22:41;49.00;;;24.13;;
22284;SDS011;11311;52.192;20.900;2023-04-28T00:27:38;33.63;;;20.95;;
22284;SDS011;11311;52.192;20.900;2023-04-28T00:30:08;37.38;;;21.80;;
22284;SDS011;11311;52.192;20.900;2023-04-28T00:32:37;36.05;;;20.25;;
22284;SDS011;11311;52.192;20.900;2023-04-28T00:35:06;35.60;;;21.25;;
22284;SDS011;11311;52.192;20.900;2023-04-28T00:37:35;38.25;;;20.73;;
22284;SDS011;11311;52.192;20.900;2023-04-28T00:40:06;44.65;;;22.63;;
22284;SDS011;11311;52.192;20.900;2023-04-28T00:42:37;32.08;;;20.40;;
22284;SDS011;11311;52.192;20.900;2023-04-28T00:45:06;37.35;;;21.75;;
22284;SDS011;11311;52.192;20.900;2023-04-28T00:47:36;35.70;;;21.33;;
22284;SDS011;11311;52.192;20.900;2023-04-28T00:50:05;47.05;;;21.00;;
22284;SDS011;11311;52.192;20.900;2023-04-28T00:52:36;31.55;;;19.45;;
22284;SDS011;11311;52.192;20.900;2023-04-28T00:55:08;29.98;;;19.13;;
22284;SDS011;11311;52.192;20.900;2023-04-28T00:57:37;30.85;;;20.15;;
22284;SDS011;11311;52.192;20.900;2023-04-28T01:00:08;32.83;;;20.23;;
22284;SDS011;11311;52.192;20.900;2023-04-28T01:02:37;29.48;;;19.83;;
22284;SDS011;11311;52.192;20.900;2023-04-28T01:05:07;33.28;;;18.73;;
22284;SDS011;11311;52.192;20.900;2023-04-28T01:07:36;30.48;;;19.55;;
22284;SDS011;11311;52.192;20.900;2023-04-28T01:10:08;35.55;;;20.05;;
22284;SDS011;11311;52.192;20.900;2023-04-28T01:12:37;34.33;;;19.80;;
22284;SDS011;11311;52.192;20.900;2023-04-28T01:15:06;29.90;;;20.17;;
22284;SDS011;11311;52.192;20.900;2023-04-28T01:17:39;30.17;;;19.33;;
22284;SDS011;11311;52.192;20.900;2023-04-28T01:20:09;28.15;;;18.05;;
22284;SDS011;11311;52.192;20.900;2023-04-28T01:22:38;32.33;;;21.17;;
22284;SDS011;11311;52.192;20.900;2023-04-28T01:25:09;37.83;;;20.07;;
22284;SDS011;11311;52.192;20.900;2023-04-28T01:27:38;34.83;;;19.88;;
22284;SDS011;11311;52.192;20.900;2023-04-28T01:30:07;30.90;;;20.63;;
22284;SDS011;11311;52.192;20.900;2023-04-28T01:32:38;30.48;;;18.35;;
22284;SDS011;11311;52.192;20.900;2023-04-28T01:35:07;33.20;;;20.55;;
22284;SDS011;11311;52.192;20.900;2023-04-28T01:37:36;29.75;;;18.95;;
22284;SDS011;11311;52.192;20.900;2023-04-28T01:40:05;34.03;;;21.05;;
22284;SDS011;11311;52.192;20.900;2023-04-28T01:42:37;30.38;;;20.10;;
22284;SDS011;11311;52.192;20.900;2023-04-28T01:45:06;29.65;;;19.20;;
22284;SDS011;11311;52.192;20.900;2023-04-28T01:47:36;32.25;;;19.58;;
22284;SDS011;11311;52.192;20.900;2023-04-28T01:50:05;29.55;;;18.20;;
22284;SDS011;11311;52.192;20.900;2023-04-28T01:52:34;32.85;;;19.73;;
22284;SDS011;11311;52.192;20.900;2023-04-28T01:55:03;34.22;;;19.25;;
22284;SDS011;11311;52.192;20.900;2023-04-28T01:57:34;34.35;;;22.63;;
22284;SDS011;11311;52.192;20.900;2023-04-28T02:00:06;37.05;;;20.20;;
22284;SDS011;11311;52.192;20.900;2023-04-28T02:02:45;31.88;;;20.98;;
22284;SDS011;11311;52.192;20.900;2023-04-28T02:05:15;31.10;;;20.95;;
22284;SDS011;11311;52.192;20.900;2023-04-28T02:07:46;38.67;;;19.80;;
22284;SDS011;11311;52.192;20.900;2023-04-28T02:10:15;39.40;;;20.13;;
22284;SDS011;11311;52.192;20.900;2023-04-28T02:12:44;33.58;;;21.00;;
22284;SDS011;11311;52.192;20.900;2023-04-28T02:15:14;34.30;;;20.73;;
22284;SDS011;11311;52.192;20.900;2023-04-28T02:17:43;33.72;;;20.20;;
22284;SDS011;11311;52.192;20.900;2023-04-28T02:20:13;27.48;;;19.88;;
22284;SDS011;11311;52.192;20.900;2023-04-28T02:22:42;27.98;;;19.60;;
22284;SDS011;11311;52.192;20.900;2023-04-28T02:25:11;36.65;;;20.10;;
22284;SDS011;11311;52.192;20.900;2023-04-28T02:30:10;28.10;;;19.70;;
22284;SDS011;11311;52.192;20.900;2023-04-28T02:32:41;34.03;;;21.48;;
22284;SDS011;11311;52.192;20.900;2023-04-28T02:35:10;34.47;;;22.00;;
22284;SDS011;11311;52.192;20.900;2023-04-28T02:37:39;31.90;;;20.77;;
22284;SDS011;11311;52.192;20.900;2023-04-28T02:40:08;35.38;;;20.85;;
22284;SDS011;11311;52.192;20.900;2023-04-28T02:42:37;31.75;;;19.42;;
22284;SDS011;11311;52.192;20.900;2023-04-28T02:45:07;33.70;;;19.50;;
22284;SDS011;11311;52.192;20.900;2023-04-28T02:47:36;33.10;;;20.55;;
22284;SDS011;11311;52.192;20.900;2023-04-28T02:50:07;31.38;;;20.00;;
22284;SDS011;11311;52.192;20.900;2023-04-28T02:52:36;30.67;;;20.45;;
22284;SDS011;11311;52.192;20.900;2023-04-28T02:55:06;30.63;;;19.58;;
22284;SDS011;11311;52.192;20.900;2023-04-28T02:57:35;28.23;;;19.30;;
22284;SDS011;11311;52.192;20.900;2023-04-28T03:00:05;30.45;;;19.48;;
22284;SDS011;11311;52.192;20.900;2023-04-28T03:02:42;34.58;;;21.38;;
22284;SDS011;11311;52.192;20.900;2023-04-28T03:05:13;33.17;;;20.45;;
22284;SDS011;11311;52.192;20.900;2023-04-28T03:10:10;29.90;;;19.83;;
22284;SDS011;11311;52.192;20.900;2023-04-28T03:12:40;33.93;;;21.57;;
22284;SDS011;11311;52.192;20.900;2023-04-28T03:15:09;28.90;;;20.67;;
22284;SDS011;11311;52.192;20.900;2023-04-28T03:17:40;39.05;;;21.33;;
22284;SDS011;11311;52.192;20.900;2023-04-28T03:20:10;28.80;;;19.95;;
22284;SDS011;11311;52.192;20.900;2023-04-28T03:22:40;34.13;;;20.05;;
22284;SDS011;11311;52.192;20.900;2023-04-28T03:25:09;32.78;;;21.13;;
22284;SDS011;11311;52.192;20.900;2023-04-28T03:27:46;29.08;;;18.90;;
22284;SDS011;11311;52.192;20.900;2023-04-28T03:30:18;30.83;;;19.90;;
22284;SDS011;11311;52.192;20.900;2023-04-28T03:32:47;37.03;;;19.13;;
22284;SDS011;11311;52.192;20.900;2023-04-28T03:35:18;27.73;;;18.77;;
22284;SDS011;11311;52.192;20.900;2023-04-28T03:37:48;39.28;;;20.63;;
22284;SDS011;11311;52.192;20.900;2023-04-28T03:40:17;32.92;;;19.95;;
22284;SDS011;11311;52.192;20.900;2023-04-28T03:43:05;34.13;;;20.02;;
22284;SDS011;11311;52.192;20.900;2023-04-28T03:45:39;31.65;;;20.40;;
22284;SDS011;11311;52.192;20.900;2023-04-28T03:48:09;29.25;;;20.05;;
22284;SDS011;11311;52.192;20.900;2023-04-28T03:50:38;30.73;;;19.33;;
22284;SDS011;11311;52.192;20.900;2023-04-28T03:53:10;40.20;;;20.98;;
22284;SDS011;11311;52.192;20.900;2023-04-28T03:55:38;37.90;;;21.48;;
22284;SDS011;11311;52.192;20.900;2023-04-28T03:58:08;38.78;;;23.75;;
22284;SDS011;11311;52.192;20.900;2023-04-28T04:00:37;46.05;;;23.02;;
22284;SDS011;11311;52.192;20.900;2023-04-28T04:03:06;34.65;;;19.02;;
22284;SDS011;11311;52.192;20.900;2023-04-28T04:05:36;31.80;;;19.15;;
22284;SDS011;11311;52.192;20.900;2023-04-28T04:08:07;35.17;;;23.85;;
22284;SDS011;11311;52.192;20.900;2023-04-28T04:10:37;40.20;;;24.40;;
22284;SDS011;11311;52.192;20.900;2023-04-28T04:13:06;37.88;;;21.95;;
22284;SDS011;11311;52.192;20.900;2023-04-28T04:15:35;40.10;;;21.75;;
22284;SDS011;11311;52.192;20.900;2023-04-28T04:18:04;35.05;;;19.42;;
22284;SDS011;11311;52.192;20.900;2023-04-28T04:20:56;30.05;;;20.00;;
22284;SDS011;11311;52.192;20.900;2023-04-28T04:23:26;34.28;;;19.75;;
22284;SDS011;11311;52.192;20.900;2023-04-28T04:25:57;35.42;;;18.58;;
22284;SDS011;11311;52.192;20.900;2023-04-28T04:28:25;31.83;;;18.55;;
22284;SDS011;11311;52.192;20.900;2023-04-28T04:30:54;36.20;;;18.98;;
22284;SDS011;11311;52.192;20.900;2023-04-28T04:33:23;28.25;;;17.88;;
22284;SDS011;11311;52.192;20.900;2023-04-28T04:35:53;32.33;;;19.38;;
22284;SDS011;11311;52.192;20.900;2023-04-28T04:38:22;29.10;;;18.15;;
22284;SDS011;11311;52.192;20.900;2023-04-28T04:40:51;29.48;;;18.40;;
22284;SDS011;11311;52.192;20.900;2023-04-28T04:43:22;29.88;;;18.10;;
22284;SDS011;11311;52.192;20.900;2023-04-28T04:45:51;32.28;;;17.98;;
22284;SDS011;11311;52.192;20.900;2023-04-28T04:48:21;28.48;;;17.83;;
22284;SDS011;11311;52.192;20.900;2023-04-28T04:50:50;32.38;;;20.45;;
22284;SDS011;11311;52.192;20.900;2023-04-28T04:53:19;26.23;;;17.55;;
22284;SDS011;11311;52.192;20.900;2023-04-28T04:55:48;34.45;;;18.20;;
22284;SDS011;11311;52.192;20.900;2023-04-28T04:58:17;31.88;;;19.02;;
22284;SDS011;11311;52.192;20.900;2023-04-28T05:00:50;32.08;;;18.60;;
22284;SDS011;11311;52.192;20.900;2023-04-28T05:03:20;32.10;;;17.88;;
22284;SDS011;11311;52.192;20.900;2023-04-28T05:05:49;29.13;;;19.80;;
22284;SDS011;11311;52.192;20.900;2023-04-28T05:08:32;27.85;;;19.63;;
22284;SDS011;11311;52.192;20.900;2023-04-28T05:11:01;34.53;;;19.45;;
22284;SDS011;11311;52.192;20.900;2023-04-28T05:13:30;29.63;;;19.67;;
22284;SDS011;11311;52.192;20.900;2023-04-28T05:16:03;32.22;;;20.00;;
22284;SDS011;11311;52.192;20.900;2023-04-28T05:19:06;32.53;;;18.35;;
22284;SDS011;11311;52.192;20.900;2023-04-28T05:21:35;31.30;;;19.45;;
22284;SDS011;11311;52.192;20.900;2023-04-28T05:24:05;31.80;;;18.35;;
22284;SDS011;11311;52.192;20.900;2023-04-28T05:26:34;29.75;;;17.17;;
22284;SDS011;11311;52.192;20.900;2023-04-28T05:29:07;33.88;;;18.13;;
22284;SDS011;11311;52.192;20.900;2023-04-28T05:31:37;39.15;;;18.02;;
22284;SDS011;11311;52.192;20.900;2023-04-28T05:34:08;38.08;;;18.98;;
22284;SDS011;11311;52.192;20.900;2023-04-28T05:36:37;35.63;;;19.27;;
22284;SDS011;11311;52.192;20.900;2023-04-28T05:39:08;23.17;;;16.90;;
22284;SDS011;11311;52.192;20.900;2023-04-28T05:41:38;34.55;;;18.73;;
22284;SDS011;11311;52.192;20.900;2023-04-28T05:44:08;35.20;;;17.77;;
22284;SDS011;11311;52.192;20.900;2023-04-28T05:46:38;28.67;;;18.00;;
22284;SDS011;11311;52.192;20.900;2023-04-28T05:49:08;26.65;;;16.92;;
22284;SDS011;11311;52.192;20.900;2023-04-28T05:51:38;42.38;;;18.80;;
22284;SDS011;11311;52.192;20.900;2023-04-28T05:54:07;30.30;;;17.73;;
22284;SDS011;11311;52.192;20.900;2023-04-28T05:56:41;32.65;;;17.42;;
22284;SDS011;11311;52.192;20.900;2023-04-28T05:59:11;28.60;;;16.23;;
22284;SDS011;11311;52.192;20.900;2023-04-28T06:01:41;32.63;;;17.50;;
22284;SDS011;11311;52.192;20.900;2023-04-28T06:04:11;27.38;;;16.48;;
22284;SDS011;11311;52.192;20.900;2023-04-28T06:06:40;31.98;;;16.10;;
22284;SDS011;11311;52.192;20.900;2023-04-28T06:09:09;25.95;;;13.30;;
22284;SDS011;11311;52.192;20.900;2023-04-28T06:11:38;30.50;;;15.57;;
22284;SDS011;11311;52.192;20.900;2023-04-28T06:14:07;36.88;;;17.35;;
22284;SDS011;11311;52.192;20.900;2023-04-28T06:16:36;24.08;;;15.48;;
22284;SDS011;11311;52.192;20.900;2023-04-28T06:19:07;26.85;;;14.57;;
22284;SDS011;11311;52.192;20.900;2023-04-28T06:24:04;22.00;;;13.30;;
22284;SDS011;11311;52.192;20.900;2023-04-28T06:26:34;26.30;;;14.03;;
22284;SDS011;11311;52.192;20.900;2023-04-28T06:29:03;25.08;;;11.73;;
22284;SDS011;11311;52.192;20.900;2023-04-28T06:31:31;23.95;;;10.80;;
22284;SDS011;11311;52.192;20.900;2023-04-28T06:34:00;34.00;;;13.18;;
22284;SDS011;11311;52.192;20.900;2023-04-28T06:36:31;23.38;;;14.20;;
22284;SDS011;11311;52.192;20.900;2023-04-28T06:39:00;18.55;;;11.68;;
22284;SDS011;11311;52.192;20.900;2023-04-28T06:41:29;13.85;;;9.70;;
22284;SDS011;11311;52.192;20.900;2023-04-28T06:44:00;19.70;;;10.90;;
22284;SDS011;11311;52.192;20.900;2023-04-28T06:46:29;22.38;;;11.05;;
22284;SDS011;11311;52.192;20.900;2023-04-28T06:48:58;21.35;;;12.60;;
22284;SDS011;11311;52.192;20.900;2023-04-28T06:51:27;16.30;;;10.55;;
22284;SDS011;11311;52.192;20.900;2023-04-28T06:53:58;19.25;;;11.30;;
22284;SDS011;11311;52.192;20.900;2023-04-28T06:56:27;19.85;;;11.32;;
22284;SDS011;11311;52.192;20.900;2023-04-28T06:58:56;21.27;;;12.23;;
22284;SDS011;11311;52.192;20.900;2023-04-28T07:01:25;15.70;;;11.02;;
22284;SDS011;11311;52.192;20.900;2023-04-28T07:03:55;17.27;;;10.77;;
22284;SDS011;11311;52.192;20.900;2023-04-28T07:06:24;20.58;;;10.80;;
22284;SDS011;11311;52.192;20.900;2023-04-28T07:08:53;18.43;;;11.60;;
22284;SDS011;11311;52.192;20.900;2023-04-28T07:11:24;23.48;;;11.43;;
22284;SDS011;11311;52.192;20.900;2023-04-28T07:13:52;23.88;;;11.95;;
22284;SDS011;11311;52.192;20.900;2023-04-28T07:16:21;20.95;;;11.65;;
22284;SDS011;11311;52.192;20.900;2023-04-28T07:18:50;19.13;;;10.00;;
22284;SDS011;11311;52.192;20.900;2023-04-28T07:21:19;21.95;;;8.70;;
22284;SDS011;11311;52.192;20.900;2023-04-28T07:23:48;12.27;;;7.70;;
22284;SDS011;11311;52.192;20.900;2023-04-28T07:26:17;11.95;;;7.55;;
22284;SDS011;11311;52.192;20.900;2023-04-28T07:28:48;18.67;;;9.13;;
22284;SDS011;11311;52.192;20.900;2023-04-28T07:31:17;17.85;;;8.52;;
22284;SDS011;11311;52.192;20.900;2023-04-28T07:33:48;14.20;;;7.95;;
22284;SDS011;11311;52.192;20.900;2023-04-28T07:36:17;9.88;;;6.55;;
22284;SDS011;11311;52.192;20.900;2023-04-28T07:38:46;12.52;;;7.18;;
22284;SDS011;11311;52.192;20.900;2023-04-28T07:41:15;15.00;;;7.45;;
22284;SDS011;11311;52.192;20.900;2023-04-28T07:43:44;11.10;;;6.07;;
22284;SDS011;11311;52.192;20.900;2023-04-28T07:46:14;9.50;;;5.90;;
22284;SDS011;11311;52.192;20.900;2023-04-28T07:48:44;10.35;;;6.18;;
22284;SDS011;11311;52.192;20.900;2023-04-28T07:51:13;14.02;;;7.70;;
22284;SDS011;11311;52.192;20.900;2023-04-28T07:53:42;15.93;;;6.10;;
22284;SDS011;11311;52.192;20.900;2023-04-28T07:56:12;7.90;;;5.30;;
22284;SDS011;11311;52.192;20.900;2023-04-28T07:58:40;11.93;;;5.55;;
22284;SDS011;11311;52.192;20.900;2023-04-28T08:01:09;6.25;;;2.97;;
22284;SDS011;11311;52.192;20.900;2023-04-28T08:03:40;10.80;;;4.37;;
22284;SDS011;11311;52.192;20.900;2023-04-28T08:06:09;7.13;;;4.43;;
22284;SDS011;11311;52.192;20.900;2023-04-28T08:08:38;6.90;;;3.80;;
22284;SDS011;11311;52.192;20.900;2023-04-28T08:11:08;8.43;;;4.65;;
22284;SDS011;11311;52.192;20.900;2023-04-28T08:13:36;7.80;;;4.97;;
22284;SDS011;11311;52.192;20.900;2023-04-28T08:16:05;8.30;;;4.70;;
22284;SDS011;11311;52.192;20.900;2023-04-28T08:18:34;9.60;;;4.00;;
22284;SDS011;11311;52.192;20.900;2023-04-28T08:21:05;5.50;;;2.45;;
22284;SDS011;11311;52.192;20.900;2023-04-28T08:23:34;8.63;;;3.03;;
22284;SDS011;11311;52.192;20.900;2023-04-28T08:26:03;7.07;;;3.22;;
22284;SDS011;11311;52.192;20.900;2023-04-28T08:28:31;5.47;;;3.85;;
22284;SDS011;11311;52.192;20.900;2023-04-28T08:31:01;7.80;;;4.38;;
22284;SDS011;11311;52.192;20.900;2023-04-28T08:33:31;5.22;;;3.70;;
22284;SDS011;11311;52.192;20.900;2023-04-28T08:36:00;10.38;;;4.57;;
22284;SDS011;11311;52.192;20.900;2023-04-28T08:38:31;5.93;;;3.65;;
22284;SDS011;11311;52.192;20.900;2023-04-28T08:41:00;6.68;;;3.88;;
22284;SDS011;11311;52.192;20.900;2023-04-28T08:43:31;8.20;;;3.60;;
22284;SDS011;11311;52.192;20.900;2023-04-28T08:46:03;7.15;;;4.35;;
22284;SDS011;11311;52.192;20.900;2023-04-28T08:48:37;8.27;;;4.00;;
22284;SDS011;11311;52.192;20.900;2023-04-28T08:51:08;6.90;;;3.80;;
22284;SDS011;11311;52.192;20.900;2023-04-28T08:53:38;7.03;;;3.87;;
22284;SDS011;11311;52.192;20.900;2023-04-28T08:56:29;10.32;;;3.58;;
22284;SDS011;11311;52.192;20.900;2023-04-28T08:59:00;6.20;;;3.50;;
22284;SDS011;11311;52.192;20.900;2023-04-28T09:01:31;6.97;;;3.78;;
22284;SDS011;11311;52.192;20.900;2023-04-28T09:04:00;9.18;;;3.83;;
22284;SDS011;11311;52.192;20.900;2023-04-28T09:06:31;7.68;;;4.05;;
22284;SDS011;11311;52.192;20.900;2023-04-28T09:09:21;8.07;;;3.75;;
22284;SDS011;11311;52.192;20.900;2023-04-28T09:11:52;6.93;;;3.20;;
22284;SDS011;11311;52.192;20.900;2023-04-28T09:16:50;6.60;;;3.15;;
22284;SDS011;11311;52.192;20.900;2023-04-28T09:19:19;5.63;;;3.33;;
22284;SDS011;11311;52.192;20.900;2023-04-28T09:21:49;6.72;;;4.13;;
22284;SDS011;11311;52.192;20.900;2023-04-28T09:24:32;5.70;;;3.70;;
22284;SDS011;11311;52.192;20.900;2023-04-28T09:27:03;5.22;;;3.38;;
22284;SDS011;11311;52.192;20.900;2023-04-28T09:29:33;6.50;;;3.78;;
22284;SDS011;11311;52.192;20.900;2023-04-28T09:32:12;7.25;;;3.33;;
22284;SDS011;11311;52.192;20.900;2023-04-28T09:34:44;5.05;;;3.95;;
22284;SDS011;11311;52.192;20.900;2023-04-28T09:37:14;4.40;;;3.50;;
22284;SDS011;11311;52.192;20.900;2023-04-28T09:39:47;6.25;;;2.85;;
22284;SDS011;11311;52.192;20.900;2023-04-28T09:45:01;6.03;;;2.75;;
22284;SDS011;11311;52.192;20.900;2023-04-28T09:47:32;6.53;;;2.95;;
22284;SDS011;11311;52.192;20.900;2023-04-28T09:52:31;4.75;;;2.65;;
22284;SDS011;11311;52.192;20.900;2023-04-28T09:55:02;5.53;;;2.85;;
22284;SDS011;11311;52.192;20.900;2023-04-28T09:57:32;10.57;;;3.25;;
22284;SDS011;11311;52.192;20.900;2023-04-28T10:00:02;8.52;;;4.00;;
22284;SDS011;11311;52.192;20.900;2023-04-28T10:02:33;8.45;;;3.65;;
22284;SDS011;11311;52.192;20.900;2023-04-28T10:05:06;11.98;;;3.65;;
22284;SDS011;11311;52.192;20.900;2023-04-28T10:07:37;6.35;;;3.47;;
22284;SDS011;11311;52.192;20.900;2023-04-28T10:10:10;6.30;;;3.30;;
22284;SDS011;11311;52.192;20.900;2023-04-28T10:12:41;7.00;;;3.10;;
22284;SDS011;11311;52.192;20.900;2023-04-28T10:15:11;6.68;;;3.13;;
22284;SDS011;11311;52.192;20.900;2023-04-28T10:17:41;8.93;;;2.83;;
22284;SDS011;11311;52.192;20.900;2023-04-28T10:20:10;10.15;;;2.70;;
22284;SDS011;11311;52.192;20.900;2023-04-28T10:22:44;7.68;;;3.05;;
22284;SDS011;11311;52.192;20.900;2023-04-28T10:25:25;8.88;;;2.80;;
22284;SDS011;11311;52.192;20.900;2023-04-28T10:27:55;6.15;;;2.92;;
22284;SDS011;11311;52.192;20.900;2023-04-28T10:30:25;4.65;;;2.55;;
22284;SDS011;11311;52.192;20.900;2023-04-28T10:35:53;7.65;;;2.72;;
22284;SDS011;11311;52.192;20.900;2023-04-28T10:38:22;5.85;;;2.53;;
22284;SDS011;11311;52.192;20.900;2023-04-28T10:40:52;9.82;;;3.47;;
22284;SDS011;11311;52.192;20.900;2023-04-28T10:43:34;10.68;;;2.92;;
22284;SDS011;11311;52.192;20.900;2023-04-28T10:46:06;7.07;;;2.47;;
22284;SDS011;11311;52.192;20.900;2023-04-28T10:48:52;3.60;;;2.10;;
22284;SDS011;11311;52.192;20.900;2023-04-28T10:51:27;6.72;;;2.50;;
22284;SDS011;11311;52.192;20.900;2023-04-28T10:54:14;6.65;;;2.72;;
22284;SDS011;11311;52.192;20.900;2023-04-28T10:59:49;7.78;;;3.70;;
22284;SDS011;11311;52.192;20.900;2023-04-28T11:05:13;4.18;;;2.88;;
22284;SDS011;11311;52.192;20.900;2023-04-28T11:11:13;3.55;;;2.05;;
22284;SDS011;11311;52.192;20.900;2023-04-28T11:13:50;7.57;;;2.88;;
22284;SDS011;11311;52.192;20.900;2023-04-28T11:16:22;6.18;;;3.50;;
22284;SDS011;11311;52.192;20.900;2023-04-28T11:18:53;4.38;;;2.83;;
22284;SDS011;11311;52.192;20.900;2023-04-28T11:21:23;7.60;;;2.85;;
22284;SDS011;11311;52.192;20.900;2023-04-28T11:23:55;3.75;;;2.58;;
22284;SDS011;11311;52.192;20.900;2023-04-28T11:26:25;6.70;;;2.33;;
22284;SDS011;11311;52.192;20.900;2023-04-28T11:28:56;6.63;;;2.42;;
22284;SDS011;11311;52.192;20.900;2023-04-28T11:31:26;6.30;;;2.83;;
22284;SDS011;11311;52.192;20.900;2023-04-28T11:33:58;4.53;;;2.60;;
22284;SDS011;11311;52.192;20.900;2023-04-28T11:36:29;5.00;;;2.53;;
22284;SDS011;11311;52.192;20.900;2023-04-28T11:39:01;4.57;;;2.53;;
22284;SDS011;11311;52.192;20.900;2023-04-28T11:41:34;4.05;;;1.98;;
22284;SDS011;11311;52.192;20.900;2023-04-28T11:44:11;4.25;;;2.33;;
22284;SDS011;11311;52.192;20.900;2023-04-28T11:46:43;4.10;;;2.78;;
22284;SDS011;11311;52.192;20.900;2023-04-28T11:49:17;5.93;;;3.10;;
22284;SDS011;11311;52.192;20.900;2023-04-28T11:51:47;8.38;;;2.90;;
22284;SDS011;11311;52.192;20.900;2023-04-28T11:54:19;3.00;;;2.40;;
22284;SDS011;11311;52.192;20.900;2023-04-28T11:56:49;5.90;;;2.90;;
22284;SDS011;11311;52.192;20.900;2023-04-28T11:59:23;4.43;;;2.83;;
22284;SDS011;11311;52.192;20.900;2023-04-28T12:01:53;11.57;;;2.95;;
22284;SDS011;11311;52.192;20.900;2023-04-28T12:04:29;3.95;;;2.92;;
22284;SDS011;11311;52.192;20.900;2023-04-28T12:07:02;9.15;;;2.97;;
22284;SDS011;11311;52.192;20.900;2023-04-28T12:09:33;4.25;;;3.00;;
22284;SDS011;11311;52.192;20.900;2023-04-28T12:12:03;9.38;;;2.80;;
22284;SDS011;11311;52.192;20.900;2023-04-28T12:17:22;6.55;;;2.95;;
22284;SDS011;11311;52.192;20.900;2023-04-28T12:19:52;6.13;;;3.10;;
22284;SDS011;11311;52.192;20.900;2023-04-28T12:22:21;7.85;;;3.10;;
22284;SDS011;11311;52.192;20.900;2023-04-28T12:25:03;6.68;;;2.85;;
22284;SDS011;11311;52.192;20.900;2023-04-28T12:27:34;4.80;;;2.85;;
22284;SDS011;11311;52.192;20.900;2023-04-28T12:32:54;5.03;;;2.85;;
22284;SDS011;11311;52.192;20.900;2023-04-28T12:35:23;8.43;;;3.13;;
22284;SDS011;11311;52.192;20.900;2023-04-28T12:37:53;6.20;;;3.22;;
22284;SDS011;11311;52.192;20.900;2023-04-28T12:40:24;6.70;;;2.92;;
22284;SDS011;11311;52.192;20.900;2023-04-28T12:42:54;7.57;;;3.15;;
22284;SDS011;11311;52.192;20.900;2023-04-28T12:45:23;10.00;;;3.63;;
22284;SDS011;11311;52.192;20.900;2023-04-28T12:47:53;5.10;;;3.45;;
22284;SDS011;11311;52.192;20.900;2023-04-28T12:50:24;6.82;;;3.72;;
22284;SDS011;11311;52.192;20.900;2023-04-28T12:52:55;5.45;;;3.55;;
22284;SDS011;11311;52.192;20.900;2023-04-28T12:55:24;6.38;;;3.05;;
22284;SDS011;11311;52.192;20.900;2023-04-28T12:57:53;4.40;;;3.20;;
22284;SDS011;11311;52.192;20.900;2023-04-28T13:00:22;6.18;;;4.28;;
22284;SDS011;11311;52.192;20.900;2023-04-28T13:02:53;4.60;;;3.00;;
22284;SDS011;11311;52.192;20.900;2023-04-28T13:05:22;8.77;;;3.55;;
22284;SDS011;11311;52.192;20.900;2023-04-28T13:07:52;10.02;;;4.60;;
22284;SDS011;11311;52.192;20.900;2023-04-28T13:10:22;11.65;;;4.22;;
22284;SDS011;11311;52.192;20.900;2023-04-28T13:12:52;5.88;;;3.90;;
22284;SDS011;11311;52.192;20.900;2023-04-28T13:15:21;8.38;;;4.32;;
22284;SDS011;11311;52.192;20.900;2023-04-28T13:17:50;6.45;;;3.83;;
22284;SDS011;11311;52.192;20.900;2023-04-28T13:20:21;6.93;;;4.13;;
22284;SDS011;11311;52.192;20.900;2023-04-28T13:22:50;8.75;;;4.00;;
22284;SDS011;11311;52.192;20.900;2023-04-28T13:25:19;9.80;;;4.97;;
22284;SDS011;11311;52.192;20.900;2023-04-28T13:27:48;7.72;;;4.70;;
22284;SDS011;11311;52.192;20.900;2023-04-28T13:30:17;9.27;;;4.30;;
22284;SDS011;11311;52.192;20.900;2023-04-28T13:32:46;9.13;;;4.75;;
22284;SDS011;11311;52.192;20.900;2023-04-28T13:35:17;19.45;;;4.63;;
22284;SDS011;11311;52.192;20.900;2023-04-28T13:37:46;10.75;;;4.80;;
22284;SDS011;11311;52.192;20.900;2023-04-28T13:40:15;6.35;;;4.82;;
22284;SDS011;11311;52.192;20.900;2023-04-28T13:42:44;9.82;;;5.15;;
22284;SDS011;11311;52.192;20.900;2023-04-28T13:45:13;10.38;;;4.93;;
22284;SDS011;11311;52.192;20.900;2023-04-28T13:47:44;7.00;;;3.80;;
22284;SDS011;11311;52.192;20.900;2023-04-28T13:50:13;7.97;;;4.75;;
22284;SDS011;11311;52.192;20.900;2023-04-28T13:52:43;6.68;;;4.10;;
22284;SDS011;11311;52.192;20.900;2023-04-28T13:55:13;7.35;;;4.53;;
22284;SDS011;11311;52.192;20.900;2023-04-28T13:57:42;9.68;;;4.78;;
22284;SDS011;11311;52.192;20.900;2023-04-28T14:00:12;5.05;;;3.85;;
22284;SDS011;11311;52.192;20.900;2023-04-28T14:02:42;6.88;;;3.85;;
22284;SDS011;11311;52.192;20.900;2023-04-28T14:05:12;8.52;;;4.30;;
22284;SDS011;11311;52.192;20.900;2023-04-28T14:07:44;9.63;;;3.95;;
22284;SDS011;11311;52.192;20.900;2023-04-28T14:10:14;10.93;;;3.95;;
22284;SDS011;11311;52.192;20.900;2023-04-28T14:12:43;10.07;;;4.43;;
22284;SDS011;11311;52.192;20.900;2023-04-28T14:15:13;5.97;;;4.60;;
22284;SDS011;11311;52.192;20.900;2023-04-28T14:17:42;12.37;;;4.70;;
22284;SDS011;11311;52.192;20.900;2023-04-28T14:20:11;7.05;;;4.50;;
22284;SDS011;11311;52.192;20.900;2023-04-28T14:22:40;8.90;;;4.05;;
22284;SDS011;11311;52.192;20.900;2023-04-28T14:25:10;6.82;;;4.10;;
22284;SDS011;11311;52.192;20.900;2023-04-28T14:27:39;10.77;;;6.03;;
22284;SDS011;11311;52.192;20.900;2023-04-28T14:30:08;6.65;;;4.50;;
22284;SDS011;11311;52.192;20.900;2023-04-28T14:32:38;6.88;;;4.47;;
22284;SDS011;11311;52.192;20.900;2023-04-28T14:35:08;9.10;;;4.70;;
22284;SDS011;11311;52.192;20.900;2023-04-28T14:37:37;8.73;;;5.10;;
22284;SDS011;11311;52.192;20.900;2023-04-28T14:40:07;8.07;;;5.00;;
22284;SDS011;11311;52.192;20.900;2023-04-28T14:42:38;5.88;;;4.78;;
22284;SDS011;11311;52.192;20.900;2023-04-28T14:45:08;7.45;;;5.22;;
22284;SDS011;11311;52.192;20.900;2023-04-28T14:47:38;8.80;;;4.75;;
22284;SDS011;11311;52.192;20.900;2023-04-28T14:50:08;9.77;;;4.90;;
22284;SDS011;11311;52.192;20.900;2023-04-28T14:52:39;10.05;;;5.30;;
22284;SDS011;11311;52.192;20.900;2023-04-28T14:55:08;6.85;;;4.82;;
22284;SDS011;11311;52.192;20.900;2023-04-28T14:57:40;6.18;;;4.78;;
22284;SDS011;11311;52.192;20.900;2023-04-28T15:00:09;6.97;;;4.40;;
22284;SDS011;11311;52.192;20.900;2023-04-28T15:02:39;6.30;;;4.53;;
22284;SDS011;11311;52.192;20.900;2023-04-28T15:05:09;5.67;;;4.63;;
22284;SDS011;11311;52.192;20.900;2023-04-28T15:07:38;12.10;;;5.30;;
22284;SDS011;11311;52.192;20.900;2023-04-28T15:10:07;10.27;;;4.40;;
22284;SDS011;11311;52.192;20.900;2023-04-28T15:12:36;8.23;;;4.63;;
22284;SDS011;11311;52.192;20.900;2023-04-28T15:15:08;8.63;;;4.63;;